Cook, Missouri
Current Conditions -  °F | °C
As of 10:53 PM on Monday 22 Dec 2014 (Local Time) from KVIH Reporting Station
Overcast Overcast  
Wind Chill: 41°   Ceiling: 3000
Heat Index: 46°   Visibility: 10mi
Dew Point: 43°   Wind: 12mph
Humidity: 89%   Direction: 230°SW
Pressure: 29.54"   Gusts: NA
Location:  37.8491°N, 91.4653°W
Report Text: KVIH 230453Z AUTO 23010KT 10SM FEW010 BKN030 OVC045 08/06 A2954 RMK AO2 SLP006 T00780061 $
Loading
Personal Weather Stations






























Interactive Weather Map New forecast layout! Learn more

10-Day Weather Forecast

Advertisements
Track Severe Weather on mobile